TAM8170 SBGR-SAAR
Flight info
| Callsign | TAM8170 |
|---|---|
| Flight time | 3h 28m |
| Altitude | 34000 |
| Route | SOVSI UZ85 RAXIT DCT UMDOR DCT ESLOT DCT URURI UM534 ANRAL DCT TINTA |
| Aircraft | A320/M-SDE3FGHIRWY/LB1 |
Departure
| Time | 2026-04-30 14:11 |
|---|---|
| Airport | São Paulo/Guarulhos–Governor André Franco Montoro International Airport (SBGR) |
Arrival
| Time | 2026-04-30 17:39 |
|---|---|
| Airport | Rosario Islas Malvinas International Airport (SAAR) |
| Time | Latitude | Longitude | Altitude | Speed | Heading |
|---|---|---|---|---|---|
| 2026-04-30 13:47 | -23.42761 | -46.48642 | 2465 ft | 0 kts | 96° |
| 2026-04-30 13:59 | -23.42760 | -46.48655 | 2489 ft | 4 kts | 96° |
| 2026-04-30 13:59 | -23.42757 | -46.48685 | 2475 ft | 4 kts | 96° |
| 2026-04-30 13:59 | -23.42754 | -46.48712 | 2476 ft | 4 kts | 107° |
| 2026-04-30 14:00 | -23.42740 | -46.48735 | 2478 ft | 4 kts | 158° |
| 2026-04-30 14:00 | -23.42722 | -46.48740 | 2476 ft | 0 kts | 172° |
| 2026-04-30 14:02 | -23.42734 | -46.48738 | 2475 ft | 5 kts | 172° |
| 2026-04-30 14:03 | -23.42780 | -46.48740 | 2476 ft | 8 kts | 186° |
| 2026-04-30 14:03 | -23.42838 | -46.48747 | 2479 ft | 9 kts | 187° |
| 2026-04-30 14:03 | -23.42905 | -46.48755 | 2478 ft | 11 kts | 186° |
| 2026-04-30 14:03 | -23.42984 | -46.48764 | 2481 ft | 12 kts | 185° |
| 2026-04-30 14:04 | -23.43071 | -46.48773 | 2465 ft | 12 kts | 186° |
| 2026-04-30 14:04 | -23.43150 | -46.48770 | 2466 ft | 12 kts | 150° |
| 2026-04-30 14:04 | -23.43173 | -46.48684 | 2468 ft | 13 kts | 97° |
| 2026-04-30 14:04 | -23.43183 | -46.48582 | 2468 ft | 14 kts | 95° |
| 2026-04-30 14:05 | -23.43191 | -46.48469 | 2465 ft | 15 kts | 94° |
| 2026-04-30 14:05 | -23.43214 | -46.48394 | 2467 ft | 7 kts | 134° |
| 2026-04-30 14:05 | -23.43243 | -46.48382 | 2467 ft | 4 kts | 165° |
| 2026-04-30 14:05 | -23.43252 | -46.48379 | 2468 ft | 0 kts | 164° |
| 2026-04-30 14:07 | -23.43253 | -46.48379 | 2468 ft | 1 kts | 160° |
| 2026-04-30 14:07 | -23.43260 | -46.48362 | 2468 ft | 6 kts | 108° |
| 2026-04-30 14:07 | -23.43244 | -46.48291 | 2470 ft | 13 kts | 75° |
| 2026-04-30 14:08 | -23.43210 | -46.48078 | 2468 ft | 13 kts | 137° |
| 2026-04-30 14:08 | -23.43248 | -46.48075 | 2468 ft | 6 kts | 182° |
| 2026-04-30 14:08 | -23.43335 | -46.47996 | 2463 ft | 1 kts | 70° |
| 2026-04-30 14:09 | -23.43334 | -46.47993 | 2463 ft | 0 kts | 71° |
| 2026-04-30 14:10 | -23.43329 | -46.47976 | 2463 ft | 16 kts | 71° |
| 2026-04-30 14:10 | -23.43230 | -46.47600 | 2459 ft | 84 kts | 74° |
| 2026-04-30 14:10 | -23.43013 | -46.46802 | 2465 ft | 132 kts | 73° |
| 2026-04-30 14:11 | -23.42718 | -46.45697 | 2466 ft | 171 kts | 73° |
| 2026-04-30 14:11 | -23.42364 | -46.44406 | 2906 ft | 177 kts | 74° |
| 2026-04-30 14:11 | -23.41993 | -46.43074 | 3293 ft | 195 kts | 73° |
| 2026-04-30 14:11 | -23.41572 | -46.41577 | 3493 ft | 220 kts | 73° |
| 2026-04-30 14:12 | -23.41081 | -46.39891 | 3727 ft | 246 kts | 72° |
| 2026-04-30 14:12 | -23.40529 | -46.38040 | 4171 ft | 266 kts | 72° |
| 2026-04-30 14:12 | -23.40221 | -46.36033 | 4875 ft | 275 kts | 93° |
| 2026-04-30 14:12 | -23.40465 | -46.34669 | 5463 ft | 280 kts | 109° |
| 2026-04-30 14:13 | -23.41343 | -46.31955 | 6694 ft | 285 kts | 110° |
| 2026-04-30 14:13 | -23.42009 | -46.29931 | 7483 ft | 289 kts | 110° |
| 2026-04-30 14:13 | -23.42707 | -46.27852 | 8242 ft | 293 kts | 113° |
| 2026-04-30 14:13 | -23.43891 | -46.26061 | 8985 ft | 295 kts | 144° |
| 2026-04-30 14:14 | -23.45730 | -46.25117 | 9723 ft | 295 kts | 173° |
| 2026-04-30 14:14 | -23.47763 | -46.25206 | 10405 ft | 296 kts | 192° |
| 2026-04-30 14:14 | -23.49858 | -46.25631 | 10613 ft | 318 kts | 193° |
| 2026-04-30 14:14 | -23.52026 | -46.26392 | 10752 ft | 338 kts | 207° |
| 2026-04-30 14:15 | -23.54018 | -46.27810 | 11167 ft | 346 kts | 223° |
| 2026-04-30 14:15 | -23.55641 | -46.29758 | 11756 ft | 349 kts | 237° |
| 2026-04-30 14:15 | -23.56802 | -46.32086 | 12369 ft | 352 kts | 245° |
| 2026-04-30 14:15 | -23.57892 | -46.34485 | 12994 ft | 355 kts | 244° |
| 2026-04-30 14:16 | -23.59046 | -46.36919 | 13608 ft | 359 kts | 243° |
| 2026-04-30 14:16 | -23.60199 | -46.39316 | 14135 ft | 362 kts | 243° |
| 2026-04-30 14:16 | -23.61375 | -46.41759 | 14664 ft | 365 kts | 243° |
| 2026-04-30 14:16 | -23.62552 | -46.44222 | 15185 ft | 368 kts | 243° |
| 2026-04-30 14:17 | -23.63731 | -46.46704 | 15697 ft | 371 kts | 243° |
| 2026-04-30 14:17 | -23.64916 | -46.49214 | 16212 ft | 373 kts | 243° |
| 2026-04-30 14:17 | -23.66107 | -46.51741 | 16710 ft | 376 kts | 244° |
| 2026-04-30 14:17 | -23.67305 | -46.54295 | 17232 ft | 379 kts | 244° |
| 2026-04-30 14:18 | -23.68505 | -46.56857 | 17740 ft | 382 kts | 244° |
| 2026-04-30 14:18 | -23.69718 | -46.59444 | 18251 ft | 384 kts | 244° |
| 2026-04-30 14:18 | -23.72162 | -46.64643 | 19181 ft | 389 kts | 244° |
| 2026-04-30 14:19 | -23.74655 | -46.69958 | 20158 ft | 393 kts | 244° |
| 2026-04-30 14:19 | -23.75900 | -46.72621 | 20666 ft | 394 kts | 245° |
| 2026-04-30 14:19 | -23.77148 | -46.75290 | 21165 ft | 396 kts | 245° |
| 2026-04-30 14:20 | -23.78384 | -46.77938 | 21642 ft | 397 kts | 245° |
| 2026-04-30 14:20 | -23.79659 | -46.80667 | 22121 ft | 399 kts | 245° |
| 2026-04-30 14:20 | -23.82193 | -46.86082 | 23023 ft | 402 kts | 245° |
| 2026-04-30 14:21 | -23.83465 | -46.88800 | 23446 ft | 403 kts | 245° |
| 2026-04-30 14:21 | -23.84746 | -46.91544 | 23833 ft | 405 kts | 245° |
| 2026-04-30 14:21 | -23.87304 | -46.97041 | 24537 ft | 407 kts | 246° |
| 2026-04-30 14:22 | -23.88588 | -46.99805 | 24881 ft | 409 kts | 246° |
| 2026-04-30 14:22 | -23.91169 | -47.05359 | 25540 ft | 411 kts | 246° |
| 2026-04-30 14:22 | -23.92449 | -47.08115 | 25876 ft | 412 kts | 246° |
| 2026-04-30 14:23 | -23.95067 | -47.13749 | 26539 ft | 415 kts | 246° |
| 2026-04-30 14:23 | -23.97981 | -47.19180 | 27178 ft | 424 kts | 231° |
| 2026-04-30 14:24 | -24.02278 | -47.23679 | 27794 ft | 429 kts | 227° |
| 2026-04-30 14:24 | -24.04462 | -47.25906 | 28116 ft | 431 kts | 227° |
| 2026-04-30 14:25 | -24.08868 | -47.30384 | 28721 ft | 434 kts | 228° |
| 2026-04-30 14:25 | -24.13272 | -47.34861 | 29629 ft | 430 kts | 228° |
| 2026-04-30 14:26 | -24.16920 | -47.38584 | 30387 ft | 426 kts | 229° |
| 2026-04-30 14:26 | -24.19081 | -47.40794 | 30781 ft | 424 kts | 228° |
| 2026-04-30 14:26 | -24.24054 | -47.45890 | 31731 ft | 419 kts | 228° |
| 2026-04-30 14:27 | -24.25490 | -47.47362 | 32027 ft | 417 kts | 229° |
| 2026-04-30 14:27 | -24.27573 | -47.49504 | 32447 ft | 415 kts | 229° |
| 2026-04-30 14:27 | -24.29673 | -47.51668 | 32884 ft | 413 kts | 229° |
| 2026-04-30 14:28 | -24.33864 | -47.55989 | 33779 ft | 409 kts | 228° |
| 2026-04-30 14:28 | -24.35937 | -47.58117 | 34060 ft | 408 kts | 228° |
| 2026-04-30 14:28 | -24.40120 | -47.62411 | 34115 ft | 415 kts | 228° |
| 2026-04-30 14:29 | -24.48563 | -47.71117 | 34115 ft | 417 kts | 229° |
| 2026-04-30 14:31 | -24.59074 | -47.81980 | 34125 ft | 416 kts | 229° |
| 2026-04-30 14:31 | -24.65396 | -47.88514 | 34132 ft | 416 kts | 229° |
| 2026-04-30 14:32 | -24.71719 | -47.95053 | 34141 ft | 416 kts | 229° |
| 2026-04-30 14:33 | -24.75925 | -47.99424 | 34144 ft | 415 kts | 229° |
| 2026-04-30 14:33 | -24.82223 | -48.05962 | 34146 ft | 415 kts | 229° |
| 2026-04-30 14:34 | -24.86418 | -48.10325 | 34151 ft | 415 kts | 229° |
| 2026-04-30 14:34 | -24.90610 | -48.14689 | 34150 ft | 414 kts | 229° |
| 2026-04-30 14:35 | -24.96881 | -48.21225 | 34140 ft | 414 kts | 229° |
| 2026-04-30 14:36 | -25.01057 | -48.25592 | 34148 ft | 414 kts | 229° |
| 2026-04-30 14:36 | -25.05235 | -48.29956 | 34153 ft | 414 kts | 229° |
| 2026-04-30 14:37 | -25.09413 | -48.34317 | 34154 ft | 413 kts | 229° |
| 2026-04-30 14:37 | -25.13590 | -48.38682 | 34160 ft | 413 kts | 229° |
| 2026-04-30 14:38 | -25.17757 | -48.43054 | 34160 ft | 413 kts | 229° |
| 2026-04-30 14:38 | -25.21919 | -48.47421 | 34163 ft | 413 kts | 229° |
| 2026-04-30 14:39 | -25.26089 | -48.51793 | 34165 ft | 413 kts | 229° |
| 2026-04-30 14:39 | -25.30250 | -48.56161 | 34166 ft | 412 kts | 229° |
| 2026-04-30 14:40 | -25.36484 | -48.62717 | 34168 ft | 412 kts | 229° |
| 2026-04-30 14:40 | -25.40626 | -48.67085 | 34165 ft | 412 kts | 230° |
| 2026-04-30 14:41 | -25.44767 | -48.71466 | 34166 ft | 411 kts | 230° |
| 2026-04-30 14:41 | -25.48905 | -48.75833 | 34167 ft | 411 kts | 229° |
| 2026-04-30 14:42 | -25.53045 | -48.80204 | 34177 ft | 411 kts | 230° |
| 2026-04-30 14:42 | -25.57179 | -48.84573 | 34188 ft | 411 kts | 230° |
| 2026-04-30 14:43 | -25.61310 | -48.88941 | 34198 ft | 410 kts | 230° |
| 2026-04-30 14:43 | -25.65402 | -48.93282 | 34203 ft | 410 kts | 230° |
| 2026-04-30 14:44 | -25.69520 | -48.97642 | 34205 ft | 409 kts | 230° |
| 2026-04-30 14:44 | -25.73636 | -49.02006 | 34204 ft | 409 kts | 230° |
| 2026-04-30 14:45 | -25.77744 | -49.06376 | 34200 ft | 409 kts | 230° |
| 2026-04-30 14:45 | -25.81844 | -49.10743 | 34191 ft | 409 kts | 230° |
| 2026-04-30 14:46 | -25.85945 | -49.15116 | 34182 ft | 409 kts | 230° |
| 2026-04-30 14:46 | -25.90044 | -49.19492 | 34175 ft | 409 kts | 230° |
| 2026-04-30 14:47 | -25.94152 | -49.23869 | 34179 ft | 409 kts | 230° |
| 2026-04-30 14:47 | -25.98251 | -49.28243 | 34174 ft | 409 kts | 230° |
| 2026-04-30 14:48 | -26.02346 | -49.32620 | 34174 ft | 408 kts | 230° |
| 2026-04-30 14:48 | -26.06436 | -49.37002 | 34170 ft | 408 kts | 230° |
| 2026-04-30 14:49 | -26.10522 | -49.41377 | 34342 ft | 409 kts | 230° |
| 2026-04-30 14:49 | -26.12579 | -49.43583 | 34715 ft | 407 kts | 230° |
| 2026-04-30 14:49 | -26.14608 | -49.45761 | 35071 ft | 405 kts | 230° |
| 2026-04-30 14:50 | -26.18652 | -49.50098 | 35728 ft | 402 kts | 231° |
| 2026-04-30 14:50 | -26.20662 | -49.52259 | 36036 ft | 401 kts | 231° |
| 2026-04-30 14:51 | -26.24684 | -49.56564 | 36150 ft | 401 kts | 230° |
| 2026-04-30 14:51 | -26.26722 | -49.58682 | 36156 ft | 401 kts | 230° |
| 2026-04-30 14:52 | -26.32899 | -49.64965 | 36155 ft | 401 kts | 229° |
| 2026-04-30 14:52 | -26.39050 | -49.71264 | 36156 ft | 400 kts | 230° |
| 2026-04-30 14:53 | -26.45175 | -49.77598 | 36165 ft | 401 kts | 230° |
| 2026-04-30 14:54 | -26.53350 | -49.86051 | 36177 ft | 401 kts | 230° |
| 2026-04-30 14:55 | -26.59485 | -49.92393 | 36178 ft | 400 kts | 230° |
| 2026-04-30 14:56 | -26.67620 | -50.00829 | 36182 ft | 400 kts | 230° |
| 2026-04-30 14:57 | -26.73763 | -50.07206 | 36186 ft | 400 kts | 230° |
| 2026-04-30 14:58 | -26.81871 | -50.15640 | 36178 ft | 399 kts | 230° |
| 2026-04-30 14:58 | -26.87965 | -50.21983 | 36178 ft | 398 kts | 230° |
| 2026-04-30 15:00 | -26.98090 | -50.32556 | 36182 ft | 398 kts | 230° |
| 2026-04-30 15:01 | -27.06176 | -50.41007 | 36179 ft | 397 kts | 230° |
| 2026-04-30 15:01 | -27.12232 | -50.47356 | 36181 ft | 397 kts | 230° |
| 2026-04-30 15:02 | -27.16258 | -50.51583 | 36189 ft | 396 kts | 230° |
| 2026-04-30 15:03 | -27.26314 | -50.62168 | 36176 ft | 396 kts | 230° |
| 2026-04-30 15:04 | -27.36356 | -50.72747 | 36174 ft | 396 kts | 231° |
| 2026-04-30 15:06 | -27.46379 | -50.83340 | 36184 ft | 395 kts | 231° |
| 2026-04-30 15:07 | -27.54385 | -50.91827 | 36178 ft | 395 kts | 231° |
| 2026-04-30 15:08 | -27.62378 | -51.00328 | 36179 ft | 395 kts | 231° |
| 2026-04-30 15:09 | -27.72381 | -51.10957 | 36177 ft | 395 kts | 231° |
| 2026-04-30 15:10 | -27.80346 | -51.19455 | 36174 ft | 395 kts | 231° |
| 2026-04-30 15:11 | -27.91682 | -51.31584 | 36167 ft | 396 kts | 231° |
| 2026-04-30 15:13 | -28.01669 | -51.42312 | 36168 ft | 396 kts | 231° |
| 2026-04-30 15:14 | -28.15649 | -51.57344 | 36158 ft | 397 kts | 231° |
| 2026-04-30 15:17 | -28.30532 | -51.79203 | 36153 ft | 389 kts | 241° |
| 2026-04-30 15:19 | -28.42848 | -51.99412 | 36147 ft | 389 kts | 241° |
| 2026-04-30 17:39 | -32.91695 | -60.78158 | 96 ft | 0 kts | 110° |